sensor_id;sensor_type;location;lat;lon;timestamp;pressure;altitude;pressure_sealevel;temperature;humidity
62055;BME280;48653;51.742;-1.256;2023-03-04T00:03:44;102448.96;;;7.03;40.66
62055;BME280;48653;51.742;-1.256;2023-03-04T00:06:10;102445.74;;;7.35;40.52
62055;BME280;48653;51.742;-1.256;2023-03-04T00:08:35;102447.23;;;7.36;40.56
62055;BME280;48653;51.742;-1.256;2023-03-04T00:11:00;102449.99;;;7.53;40.42
62055;BME280;48653;51.742;-1.256;2023-03-04T00:13:26;102447.27;;;7.09;41.01
62055;BME280;48653;51.742;-1.256;2023-03-04T00:15:51;102445.89;;;6.90;41.42
62055;BME280;48653;51.742;-1.256;2023-03-04T00:18:17;102443.52;;;7.12;41.47
62055;BME280;48653;51.742;-1.256;2023-03-04T00:20:42;102442.75;;;6.65;41.68
62055;BME280;48653;51.742;-1.256;2023-03-04T00:23:07;102441.82;;;6.42;42.07
62055;BME280;48653;51.742;-1.256;2023-03-04T00:25:33;102444.64;;;7.55;40.70
62055;BME280;48653;51.742;-1.256;2023-03-04T00:27:58;102442.65;;;6.84;41.63
62055;BME280;48653;51.742;-1.256;2023-03-04T00:30:24;102443.38;;;6.69;41.87
62055;BME280;48653;51.742;-1.256;2023-03-04T00:32:49;102447.48;;;7.00;41.97
62055;BME280;48653;51.742;-1.256;2023-03-04T00:35:14;102449.39;;;6.50;42.62
62055;BME280;48653;51.742;-1.256;2023-03-04T00:37:40;102451.42;;;6.87;42.30
62055;BME280;48653;51.742;-1.256;2023-03-04T00:40:07;102450.92;;;5.85;43.50
62055;BME280;48653;51.742;-1.256;2023-03-04T00:42:31;102452.96;;;5.91;43.27
62055;BME280;48653;51.742;-1.256;2023-03-04T00:44:56;102453.12;;;5.84;43.51
62055;BME280;48653;51.742;-1.256;2023-03-04T00:47:21;102457.83;;;5.77;43.81
62055;BME280;48653;51.742;-1.256;2023-03-04T00:49:46;102455.88;;;5.48;43.89
62055;BME280;48653;51.742;-1.256;2023-03-04T00:52:12;102460.83;;;5.67;43.70
62055;BME280;48653;51.742;-1.256;2023-03-04T00:54:37;102463.04;;;5.59;44.41
62055;BME280;48653;51.742;-1.256;2023-03-04T00:57:02;102463.91;;;5.33;44.95
62055;BME280;48653;51.742;-1.256;2023-03-04T00:59:27;102464.70;;;5.56;44.15
62055;BME280;48653;51.742;-1.256;2023-03-04T01:01:53;102464.44;;;5.59;43.92
62055;BME280;48653;51.742;-1.256;2023-03-04T01:04:18;102463.61;;;6.44;42.74
62055;BME280;48653;51.742;-1.256;2023-03-04T01:06:44;102460.22;;;6.76;42.13
62055;BME280;48653;51.742;-1.256;2023-03-04T01:09:09;102464.28;;;5.83;43.74
62055;BME280;48653;51.742;-1.256;2023-03-04T01:11:34;102461.83;;;5.57;43.65
62055;BME280;48653;51.742;-1.256;2023-03-04T01:13:59;102461.68;;;5.35;44.30
62055;BME280;48653;51.742;-1.256;2023-03-04T01:16:26;102460.29;;;5.64;43.77
62055;BME280;48653;51.742;-1.256;2023-03-04T01:18:51;102462.69;;;5.47;44.14
62055;BME280;48653;51.742;-1.256;2023-03-04T01:21:16;102465.79;;;5.54;44.27
62055;BME280;48653;51.742;-1.256;2023-03-04T01:23:41;102469.42;;;5.36;44.33
62055;BME280;48653;51.742;-1.256;2023-03-04T01:26:07;102468.55;;;5.33;44.19
62055;BME280;48653;51.742;-1.256;2023-03-04T01:28:32;102463.97;;;5.18;44.07
62055;BME280;48653;51.742;-1.256;2023-03-04T01:30:57;102458.81;;;5.12;45.49
62055;BME280;48653;51.742;-1.256;2023-03-04T01:33:22;102457.11;;;5.22;44.81
62055;BME280;48653;51.742;-1.256;2023-03-04T01:35:47;102454.89;;;5.30;44.70
62055;BME280;48653;51.742;-1.256;2023-03-04T01:38:12;102452.15;;;5.45;44.43
62055;BME280;48653;51.742;-1.256;2023-03-04T01:40:38;102451.78;;;5.27;44.85
62055;BME280;48653;51.742;-1.256;2023-03-04T01:43:03;102448.95;;;5.35;44.80
62055;BME280;48653;51.742;-1.256;2023-03-04T01:45:29;102446.70;;;4.94;45.36
62055;BME280;48653;51.742;-1.256;2023-03-04T01:47:53;102445.87;;;5.05;44.64
62055;BME280;48653;51.742;-1.256;2023-03-04T01:50:22;102444.22;;;5.33;44.98
62055;BME280;48653;51.742;-1.256;2023-03-04T01:52:44;102438.67;;;6.26;43.77
62055;BME280;48653;51.742;-1.256;2023-03-04T01:55:14;102438.67;;;5.96;43.72
62055;BME280;48653;51.742;-1.256;2023-03-04T01:57:34;102435.78;;;5.98;43.49
62055;BME280;48653;51.742;-1.256;2023-03-04T02:00:10;102429.03;;;5.45;44.73
62055;BME280;48653;51.742;-1.256;2023-03-04T02:02:25;102429.52;;;5.30;44.89
62055;BME280;48653;51.742;-1.256;2023-03-04T02:04:50;102430.33;;;4.76;45.70
62055;BME280;48653;51.742;-1.256;2023-03-04T02:07:15;102427.66;;;5.31;44.80
62055;BME280;48653;51.742;-1.256;2023-03-04T02:09:40;102423.49;;;5.56;43.99
62055;BME280;48653;51.742;-1.256;2023-03-04T02:12:06;102420.51;;;5.60;44.23
62055;BME280;48653;51.742;-1.256;2023-03-04T02:14:31;102421.16;;;5.37;44.85
62055;BME280;48653;51.742;-1.256;2023-03-04T02:16:57;102420.48;;;5.28;44.44
62055;BME280;48653;51.742;-1.256;2023-03-04T02:19:33;102418.66;;;5.72;44.40
62055;BME280;48653;51.742;-1.256;2023-03-04T02:21:47;102417.62;;;5.34;44.83
62055;BME280;48653;51.742;-1.256;2023-03-04T02:24:16;102415.76;;;4.70;45.58
62055;BME280;48653;51.742;-1.256;2023-03-04T02:26:38;102410.27;;;5.41;44.42
62055;BME280;48653;51.742;-1.256;2023-03-04T02:29:03;102411.63;;;5.59;44.30
62055;BME280;48653;51.742;-1.256;2023-03-04T02:31:31;102410.54;;;5.88;43.91
62055;BME280;48653;51.742;-1.256;2023-03-04T02:33:56;102411.58;;;6.22;43.33
62055;BME280;48653;51.742;-1.256;2023-03-04T02:36:19;102407.56;;;5.79;43.46
62055;BME280;48653;51.742;-1.256;2023-03-04T02:38:44;102408.14;;;5.76;43.70
62055;BME280;48653;51.742;-1.256;2023-03-04T02:41:12;102405.60;;;5.96;43.29
62055;BME280;48653;51.742;-1.256;2023-03-04T02:43:35;102402.91;;;6.15;43.15
62055;BME280;48653;51.742;-1.256;2023-03-04T02:46:00;102397.61;;;6.21;42.79
62055;BME280;48653;51.742;-1.256;2023-03-04T02:48:26;102398.48;;;6.59;42.55
62055;BME280;48653;51.742;-1.256;2023-03-04T02:50:52;102398.12;;;6.65;42.24
62055;BME280;48653;51.742;-1.256;2023-03-04T02:53:17;102394.08;;;6.44;42.62
62055;BME280;48653;51.742;-1.256;2023-03-04T02:55:42;102397.51;;;6.36;42.81
62055;BME280;48653;51.742;-1.256;2023-03-04T02:58:08;102399.91;;;6.27;42.93
62055;BME280;48653;51.742;-1.256;2023-03-04T03:00:33;102396.35;;;7.04;41.97
62055;BME280;48653;51.742;-1.256;2023-03-04T03:02:59;102402.16;;;6.45;42.66
62055;BME280;48653;51.742;-1.256;2023-03-04T03:05:26;102399.20;;;5.34;43.99
62055;BME280;48653;51.742;-1.256;2023-03-04T03:07:50;102390.95;;;5.76;44.02
62055;BME280;48653;51.742;-1.256;2023-03-04T03:10:16;102392.67;;;5.61;44.10
62055;BME280;48653;51.742;-1.256;2023-03-04T03:12:41;102392.18;;;5.57;44.29
62055;BME280;48653;51.742;-1.256;2023-03-04T03:15:07;102398.30;;;5.40;44.36
62055;BME280;48653;51.742;-1.256;2023-03-04T03:17:32;102398.95;;;5.97;43.74
62055;BME280;48653;51.742;-1.256;2023-03-04T03:19:57;102400.08;;;5.76;43.79
62055;BME280;48653;51.742;-1.256;2023-03-04T03:22:23;102397.56;;;5.07;44.48
62055;BME280;48653;51.742;-1.256;2023-03-04T03:24:48;102394.66;;;6.10;43.53
62055;BME280;48653;51.742;-1.256;2023-03-04T03:27:13;102395.82;;;6.01;43.66
62055;BME280;48653;51.742;-1.256;2023-03-04T03:29:39;102393.19;;;5.46;44.22
62055;BME280;48653;51.742;-1.256;2023-03-04T03:32:05;102392.11;;;5.94;43.60
62055;BME280;48653;51.742;-1.256;2023-03-04T03:34:30;102392.57;;;5.87;43.38
62055;BME280;48653;51.742;-1.256;2023-03-04T03:36:56;102390.50;;;5.86;43.64
62055;BME280;48653;51.742;-1.256;2023-03-04T03:39:21;102392.12;;;5.40;44.32
62055;BME280;48653;51.742;-1.256;2023-03-04T03:41:46;102388.80;;;5.89;43.42
62055;BME280;48653;51.742;-1.256;2023-03-04T03:44:11;102387.58;;;5.63;43.18
62055;BME280;48653;51.742;-1.256;2023-03-04T03:46:37;102386.70;;;6.25;43.22
62055;BME280;48653;51.742;-1.256;2023-03-04T03:49:02;102385.54;;;5.59;43.16
62055;BME280;48653;51.742;-1.256;2023-03-04T03:51:27;102379.39;;;5.78;43.37
62055;BME280;48653;51.742;-1.256;2023-03-04T03:53:52;102382.03;;;5.47;43.35
62055;BME280;48653;51.742;-1.256;2023-03-04T03:56:18;102381.47;;;5.71;43.14
62055;BME280;48653;51.742;-1.256;2023-03-04T03:58:43;102379.88;;;5.75;43.29
62055;BME280;48653;51.742;-1.256;2023-03-04T04:01:08;102378.31;;;5.76;43.41
62055;BME280;48653;51.742;-1.256;2023-03-04T04:03:34;102374.54;;;6.56;42.30
62055;BME280;48653;51.742;-1.256;2023-03-04T04:05:59;102376.83;;;6.31;42.53
62055;BME280;48653;51.742;-1.256;2023-03-04T04:08:25;102377.72;;;6.58;41.94
62055;BME280;48653;51.742;-1.256;2023-03-04T04:10:50;102383.29;;;6.22;42.55
62055;BME280;48653;51.742;-1.256;2023-03-04T04:13:16;102379.79;;;6.01;42.74
62055;BME280;48653;51.742;-1.256;2023-03-04T04:15:41;102386.39;;;5.91;42.39
62055;BME280;48653;51.742;-1.256;2023-03-04T04:18:07;102385.99;;;5.78;42.99
62055;BME280;48653;51.742;-1.256;2023-03-04T04:20:32;102390.09;;;6.12;41.80
62055;BME280;48653;51.742;-1.256;2023-03-04T04:22:58;102397.92;;;5.01;44.41
62055;BME280;48653;51.742;-1.256;2023-03-04T04:25:23;102396.20;;;5.56;43.24
62055;BME280;48653;51.742;-1.256;2023-03-04T04:27:48;102395.39;;;5.96;42.33
62055;BME280;48653;51.742;-1.256;2023-03-04T04:30:13;102397.76;;;5.12;43.30
62055;BME280;48653;51.742;-1.256;2023-03-04T04:32:39;102391.50;;;5.63;43.61
62055;BME280;48653;51.742;-1.256;2023-03-04T04:35:05;102396.59;;;4.68;44.36
62055;BME280;48653;51.742;-1.256;2023-03-04T04:37:29;102400.83;;;4.64;44.80
62055;BME280;48653;51.742;-1.256;2023-03-04T04:39:55;102396.45;;;4.85;44.25
62055;BME280;48653;51.742;-1.256;2023-03-04T04:42:21;102395.30;;;6.23;42.40
62055;BME280;48653;51.742;-1.256;2023-03-04T04:44:46;102399.86;;;5.29;43.09
62055;BME280;48653;51.742;-1.256;2023-03-04T04:47:11;102403.07;;;5.67;42.65
62055;BME280;48653;51.742;-1.256;2023-03-04T04:49:37;102403.29;;;5.91;42.29
62055;BME280;48653;51.742;-1.256;2023-03-04T04:52:03;102403.67;;;5.54;42.47
62055;BME280;48653;51.742;-1.256;2023-03-04T04:54:29;102411.60;;;6.02;41.69
62055;BME280;48653;51.742;-1.256;2023-03-04T04:56:54;102405.75;;;5.22;43.34
62055;BME280;48653;51.742;-1.256;2023-03-04T04:59:19;102408.71;;;5.75;42.54
62055;BME280;48653;51.742;-1.256;2023-03-04T05:01:45;102411.61;;;5.66;42.79
62055;BME280;48653;51.742;-1.256;2023-03-04T05:04:11;102413.70;;;5.85;43.16
62055;BME280;48653;51.742;-1.256;2023-03-04T05:06:36;102414.84;;;5.47;43.11
62055;BME280;48653;51.742;-1.256;2023-03-04T05:09:02;102419.02;;;5.25;43.31
62055;BME280;48653;51.742;-1.256;2023-03-04T05:11:27;102418.68;;;5.65;42.94
62055;BME280;48653;51.742;-1.256;2023-03-04T05:13:53;102424.54;;;4.73;45.07
62055;BME280;48653;51.742;-1.256;2023-03-04T05:16:18;102422.60;;;4.40;45.03
62055;BME280;48653;51.742;-1.256;2023-03-04T05:18:44;102426.32;;;3.78;46.52
62055;BME280;48653;51.742;-1.256;2023-03-04T05:21:10;102422.59;;;5.24;44.11
62055;BME280;48653;51.742;-1.256;2023-03-04T05:23:36;102420.78;;;4.96;43.42
62055;BME280;48653;51.742;-1.256;2023-03-04T05:26:00;102423.04;;;5.03;44.17
62055;BME280;48653;51.742;-1.256;2023-03-04T05:28:26;102424.61;;;4.85;43.97
62055;BME280;48653;51.742;-1.256;2023-03-04T05:30:51;102422.83;;;4.36;45.01
62055;BME280;48653;51.742;-1.256;2023-03-04T05:33:17;102429.92;;;3.97;45.54
62055;BME280;48653;51.742;-1.256;2023-03-04T05:35:43;102426.07;;;5.27;43.24
62055;BME280;48653;51.742;-1.256;2023-03-04T05:38:08;102425.21;;;5.13;42.87
62055;BME280;48653;51.742;-1.256;2023-03-04T05:40:32;102432.33;;;5.37;42.97
62055;BME280;48653;51.742;-1.256;2023-03-04T05:42:57;102425.56;;;5.18;43.22
62055;BME280;48653;51.742;-1.256;2023-03-04T05:45:23;102425.30;;;4.67;44.09
62055;BME280;48653;51.742;-1.256;2023-03-04T05:47:48;102420.61;;;5.09;44.03
62055;BME280;48653;51.742;-1.256;2023-03-04T05:50:13;102421.06;;;4.39;44.76
62055;BME280;48653;51.742;-1.256;2023-03-04T05:52:38;102423.51;;;5.38;43.56
62055;BME280;48653;51.742;-1.256;2023-03-04T05:55:05;102423.05;;;4.59;44.43
62055;BME280;48653;51.742;-1.256;2023-03-04T05:57:29;102423.00;;;4.23;44.95
62055;BME280;48653;51.742;-1.256;2023-03-04T05:59:54;102422.77;;;4.82;44.39
62055;BME280;48653;51.742;-1.256;2023-03-04T06:02:19;102424.04;;;4.58;44.65
62055;BME280;48653;51.742;-1.256;2023-03-04T06:04:45;102422.28;;;4.63;44.12
62055;BME280;48653;51.742;-1.256;2023-03-04T06:07:10;102427.94;;;4.96;43.43
62055;BME280;48653;51.742;-1.256;2023-03-04T06:09:36;102428.74;;;4.78;44.29
62055;BME280;48653;51.742;-1.256;2023-03-04T06:12:01;102426.60;;;4.93;43.26
62055;BME280;48653;51.742;-1.256;2023-03-04T06:14:26;102427.23;;;4.97;43.63
62055;BME280;48653;51.742;-1.256;2023-03-04T06:16:52;102425.60;;;4.82;44.07
62055;BME280;48653;51.742;-1.256;2023-03-04T06:19:17;102426.49;;;5.05;43.60
62055;BME280;48653;51.742;-1.256;2023-03-04T06:21:42;102427.50;;;5.27;43.51
62055;BME280;48653;51.742;-1.256;2023-03-04T06:24:08;102430.63;;;4.77;43.87
62055;BME280;48653;51.742;-1.256;2023-03-04T06:26:33;102425.61;;;5.40;43.25
62055;BME280;48653;51.742;-1.256;2023-03-04T06:28:59;102426.52;;;5.99;42.12
62055;BME280;48653;51.742;-1.256;2023-03-04T06:31:24;102426.36;;;4.62;44.12
62055;BME280;48653;51.742;-1.256;2023-03-04T06:33:49;102422.36;;;5.35;42.95
62055;BME280;48653;51.742;-1.256;2023-03-04T06:36:15;102426.29;;;6.00;42.17
62055;BME280;48653;51.742;-1.256;2023-03-04T06:38:40;102431.23;;;5.10;43.20
62055;BME280;48653;51.742;-1.256;2023-03-04T06:41:06;102436.53;;;4.13;45.29
62055;BME280;48653;51.742;-1.256;2023-03-04T06:43:31;102435.95;;;4.23;45.17
62055;BME280;48653;51.742;-1.256;2023-03-04T06:45:55;102438.97;;;4.02;45.77
62055;BME280;48653;51.742;-1.256;2023-03-04T06:48:21;102437.41;;;5.05;43.71
62055;BME280;48653;51.742;-1.256;2023-03-04T06:50:46;102443.42;;;5.07;43.96
62055;BME280;48653;51.742;-1.256;2023-03-04T06:53:12;102444.94;;;4.43;44.94
62055;BME280;48653;51.742;-1.256;2023-03-04T06:55:38;102445.28;;;5.19;44.08
62055;BME280;48653;51.742;-1.256;2023-03-04T06:58:03;102445.22;;;5.66;42.95
62055;BME280;48653;51.742;-1.256;2023-03-04T07:00:28;102448.20;;;4.87;43.64
62055;BME280;48653;51.742;-1.256;2023-03-04T07:02:53;102450.87;;;5.00;44.28
62055;BME280;48653;51.742;-1.256;2023-03-04T07:05:18;102455.46;;;4.40;44.81
62055;BME280;48653;51.742;-1.256;2023-03-04T07:07:44;102457.71;;;4.49;44.96
62055;BME280;48653;51.742;-1.256;2023-03-04T07:10:10;102459.18;;;4.37;44.86
62055;BME280;48653;51.742;-1.256;2023-03-04T07:12:35;102457.55;;;4.20;45.34
62055;BME280;48653;51.742;-1.256;2023-03-04T07:15:00;102457.12;;;4.69;45.05
62055;BME280;48653;51.742;-1.256;2023-03-04T07:17:25;102461.39;;;4.53;45.05
62055;BME280;48653;51.742;-1.256;2023-03-04T07:19:50;102465.66;;;4.46;45.50
62055;BME280;48653;51.742;-1.256;2023-03-04T07:22:15;102462.76;;;5.75;43.25
62055;BME280;48653;51.742;-1.256;2023-03-04T07:24:41;102467.08;;;4.29;45.54
62055;BME280;48653;51.742;-1.256;2023-03-04T07:27:06;102466.00;;;3.27;46.18
62055;BME280;48653;51.742;-1.256;2023-03-04T07:29:31;102464.97;;;4.49;44.95
62055;BME280;48653;51.742;-1.256;2023-03-04T07:31:57;102469.73;;;4.32;44.93
62055;BME280;48653;51.742;-1.256;2023-03-04T07:34:21;102467.07;;;4.85;44.24
62055;BME280;48653;51.742;-1.256;2023-03-04T07:36:47;102469.80;;;4.19;45.63
62055;BME280;48653;51.742;-1.256;2023-03-04T07:39:13;102465.69;;;5.11;44.20
62055;BME280;48653;51.742;-1.256;2023-03-04T07:41:38;102467.33;;;5.09;43.78
62055;BME280;48653;51.742;-1.256;2023-03-04T07:44:05;102467.82;;;4.52;44.95
62055;BME280;48653;51.742;-1.256;2023-03-04T07:46:28;102468.68;;;4.99;44.36
62055;BME280;48653;51.742;-1.256;2023-03-04T07:48:54;102469.33;;;5.29;43.48
62055;BME280;48653;51.742;-1.256;2023-03-04T07:51:21;102473.34;;;5.53;42.99
62055;BME280;48653;51.742;-1.256;2023-03-04T07:53:46;102480.12;;;4.40;45.00
62055;BME280;48653;51.742;-1.256;2023-03-04T07:56:12;102474.73;;;4.93;44.12
62055;BME280;48653;51.742;-1.256;2023-03-04T07:58:36;102481.32;;;4.19;45.52
62055;BME280;48653;51.742;-1.256;2023-03-04T08:01:08;102481.35;;;4.74;44.69
62055;BME280;48653;51.742;-1.256;2023-03-04T08:03:27;102478.61;;;5.06;44.17
62055;BME280;48653;51.742;-1.256;2023-03-04T08:05:52;102480.66;;;5.46;43.25
62055;BME280;48653;51.742;-1.256;2023-03-04T08:08:17;102476.87;;;5.58;43.47
62055;BME280;48653;51.742;-1.256;2023-03-04T08:10:43;102472.35;;;5.00;44.32
62055;BME280;48653;51.742;-1.256;2023-03-04T08:13:08;102473.26;;;4.21;45.24
62055;BME280;48653;51.742;-1.256;2023-03-04T08:15:33;102476.21;;;5.00;43.86
62055;BME280;48653;51.742;-1.256;2023-03-04T08:17:59;102474.00;;;5.43;44.14
62055;BME280;48653;51.742;-1.256;2023-03-04T08:20:25;102473.34;;;5.25;44.14
62055;BME280;48653;51.742;-1.256;2023-03-04T08:22:50;102471.49;;;5.56;43.49
62055;BME280;48653;51.742;-1.256;2023-03-04T08:25:15;102470.32;;;5.14;44.55
62055;BME280;48653;51.742;-1.256;2023-03-04T08:27:41;102471.68;;;4.72;45.18
62055;BME280;48653;51.742;-1.256;2023-03-04T08:30:07;102468.39;;;5.62;43.83
62055;BME280;48653;51.742;-1.256;2023-03-04T08:32:32;102470.58;;;5.21;44.12
62055;BME280;48653;51.742;-1.256;2023-03-04T08:34:58;102470.76;;;5.68;43.19
62055;BME280;48653;51.742;-1.256;2023-03-04T08:37:23;102475.37;;;5.34;43.29
62055;BME280;48653;51.742;-1.256;2023-03-04T08:39:49;102472.32;;;5.41;44.08
62055;BME280;48653;51.742;-1.256;2023-03-04T08:42:14;102481.35;;;4.24;45.36
62055;BME280;48653;51.742;-1.256;2023-03-04T08:44:40;102478.66;;;5.21;44.05
62055;BME280;48653;51.742;-1.256;2023-03-04T08:47:05;102479.40;;;5.80;43.04
62055;BME280;48653;51.742;-1.256;2023-03-04T08:49:31;102479.12;;;5.24;43.53
62055;BME280;48653;51.742;-1.256;2023-03-04T08:51:57;102484.27;;;5.13;43.45
62055;BME280;48653;51.742;-1.256;2023-03-04T08:54:22;102483.49;;;4.49;44.55
62055;BME280;48653;51.742;-1.256;2023-03-04T08:56:47;102483.34;;;4.86;44.55
62055;BME280;48653;51.742;-1.256;2023-03-04T08:59:12;102481.71;;;5.15;44.01
62055;BME280;48653;51.742;-1.256;2023-03-04T09:01:38;102479.03;;;5.48;42.81
62055;BME280;48653;51.742;-1.256;2023-03-04T09:04:04;102477.83;;;5.75;42.54
62055;BME280;48653;51.742;-1.256;2023-03-04T09:06:29;102483.25;;;5.98;42.90
62055;BME280;48653;51.742;-1.256;2023-03-04T09:08:54;102481.54;;;4.58;44.20
62055;BME280;48653;51.742;-1.256;2023-03-04T09:11:19;102488.26;;;4.08;45.54
62055;BME280;48653;51.742;-1.256;2023-03-04T09:13:45;102489.11;;;4.83;44.76
62055;BME280;48653;51.742;-1.256;2023-03-04T09:16:12;102488.51;;;5.30;44.08
62055;BME280;48653;51.742;-1.256;2023-03-04T09:18:35;102490.84;;;5.16;43.53
62055;BME280;48653;51.742;-1.256;2023-03-04T09:21:01;102498.51;;;4.37;45.11
62055;BME280;48653;51.742;-1.256;2023-03-04T09:23:27;102495.72;;;4.52;45.45
62055;BME280;48653;51.742;-1.256;2023-03-04T09:25:52;102492.86;;;4.68;44.66
62055;BME280;48653;51.742;-1.256;2023-03-04T09:28:18;102496.94;;;4.59;44.87
62055;BME280;48653;51.742;-1.256;2023-03-04T09:30:43;102500.01;;;4.67;45.10
62055;BME280;48653;51.742;-1.256;2023-03-04T09:33:09;102494.39;;;5.95;43.25
62055;BME280;48653;51.742;-1.256;2023-03-04T09:35:34;102490.08;;;5.45;43.17
62055;BME280;48653;51.742;-1.256;2023-03-04T09:37:59;102486.74;;;5.49;43.07
62055;BME280;48653;51.742;-1.256;2023-03-04T09:40:28;102484.02;;;5.33;42.55
62055;BME280;48653;51.742;-1.256;2023-03-04T09:42:53;102484.99;;;4.91;42.91
62055;BME280;48653;51.742;-1.256;2023-03-04T09:45:18;102484.11;;;5.56;42.96
62055;BME280;48653;51.742;-1.256;2023-03-04T09:47:43;102494.68;;;4.52;44.60
62055;BME280;48653;51.742;-1.256;2023-03-04T09:50:09;102496.21;;;4.36;45.19
62055;BME280;48653;51.742;-1.256;2023-03-04T09:52:43;102490.61;;;5.56;43.62
62055;BME280;48653;51.742;-1.256;2023-03-04T09:55:04;102486.73;;;5.66;43.05
62055;BME280;48653;51.742;-1.256;2023-03-04T09:57:28;102487.26;;;5.29;42.88
62055;BME280;48653;51.742;-1.256;2023-03-04T09:59:52;102479.11;;;5.49;42.23
62055;BME280;48653;51.742;-1.256;2023-03-04T10:02:20;102482.90;;;6.03;42.17
62055;BME280;48653;51.742;-1.256;2023-03-04T10:04:41;102481.50;;;6.35;41.68
62055;BME280;48653;51.742;-1.256;2023-03-04T10:07:08;102484.24;;;5.06;43.39
62055;BME280;48653;51.742;-1.256;2023-03-04T10:09:39;102481.81;;;6.18;41.94
62055;BME280;48653;51.742;-1.256;2023-03-04T10:12:00;102482.21;;;5.86;41.47
62055;BME280;48653;51.742;-1.256;2023-03-04T10:14:32;102485.60;;;4.59;43.70
62055;BME280;48653;51.742;-1.256;2023-03-04T10:16:50;102489.92;;;5.10;43.07
62055;BME280;48653;51.742;-1.256;2023-03-04T10:19:25;102492.02;;;5.63;42.67
62055;BME280;48653;51.742;-1.256;2023-03-04T10:21:39;102487.30;;;6.16;42.33
62055;BME280;48653;51.742;-1.256;2023-03-04T10:24:11;102488.56;;;6.06;41.78
62055;BME280;48653;51.742;-1.256;2023-03-04T10:26:29;102483.84;;;5.70;42.22
62055;BME280;48653;51.742;-1.256;2023-03-04T10:28:52;102486.13;;;6.28;42.16
62055;BME280;48653;51.742;-1.256;2023-03-04T10:31:20;102490.45;;;6.59;41.59
62055;BME280;48653;51.742;-1.256;2023-03-04T10:33:43;102491.97;;;6.57;41.28
62055;BME280;48653;51.742;-1.256;2023-03-04T10:36:24;102493.60;;;5.84;41.92
62055;BME280;48653;51.742;-1.256;2023-03-04T10:38:36;102496.75;;;5.62;42.03
62055;BME280;48653;51.742;-1.256;2023-03-04T10:41:00;102488.60;;;6.28;41.79
62055;BME280;48653;51.742;-1.256;2023-03-04T10:43:25;102486.06;;;5.78;41.71
62055;BME280;48653;51.742;-1.256;2023-03-04T10:45:54;102485.04;;;6.27;41.36
62055;BME280;48653;51.742;-1.256;2023-03-04T10:48:21;102481.38;;;5.89;42.06
62055;BME280;48653;51.742;-1.256;2023-03-04T10:50:41;102475.61;;;5.56;42.17
62055;BME280;48653;51.742;-1.256;2023-03-04T10:53:23;102475.88;;;5.28;41.96
62055;BME280;48653;51.742;-1.256;2023-03-04T10:55:41;102472.31;;;5.95;42.34
62055;BME280;48653;51.742;-1.256;2023-03-04T10:58:02;102468.84;;;6.63;40.77
62055;BME280;48653;51.742;-1.256;2023-03-04T11:00:27;102468.13;;;6.52;41.02
62055;BME280;48653;51.742;-1.256;2023-03-04T11:02:48;102469.70;;;4.97;42.64
62055;BME280;48653;51.742;-1.256;2023-03-04T11:05:19;102465.15;;;5.75;41.66
62055;BME280;48653;51.742;-1.256;2023-03-04T11:07:40;102462.24;;;6.35;41.35
62055;BME280;48653;51.742;-1.256;2023-03-04T11:10:09;102467.12;;;6.11;41.44
62055;BME280;48653;51.742;-1.256;2023-03-04T11:12:32;102466.55;;;5.76;41.51
62055;BME280;48653;51.742;-1.256;2023-03-04T11:14:54;102469.18;;;5.45;41.73
62055;BME280;48653;51.742;-1.256;2023-03-04T11:17:24;102472.42;;;5.61;42.64
62055;BME280;48653;51.742;-1.256;2023-03-04T11:19:49;102472.36;;;6.10;41.42
62055;BME280;48653;51.742;-1.256;2023-03-04T11:22:13;102470.46;;;6.15;41.17
62055;BME280;48653;51.742;-1.256;2023-03-04T11:24:36;102469.98;;;6.53;40.77
62055;BME280;48653;51.742;-1.256;2023-03-04T11:27:03;102463.66;;;6.68;40.40
62055;BME280;48653;51.742;-1.256;2023-03-04T11:29:30;102463.63;;;6.64;40.41
62055;BME280;48653;51.742;-1.256;2023-03-04T11:31:55;102459.18;;;6.23;40.76
62055;BME280;48653;51.742;-1.256;2023-03-04T11:34:28;102457.94;;;6.33;41.37
62055;BME280;48653;51.742;-1.256;2023-03-04T11:36:51;102452.14;;;5.45;41.97
62055;BME280;48653;51.742;-1.256;2023-03-04T11:39:16;102449.71;;;5.67;41.57
62055;BME280;48653;51.742;-1.256;2023-03-04T11:41:35;102450.15;;;5.19;42.23
62055;BME280;48653;51.742;-1.256;2023-03-04T11:43:59;102442.68;;;5.84;41.14
62055;BME280;48653;51.742;-1.256;2023-03-04T11:46:40;102436.40;;;6.21;40.66
62055;BME280;48653;51.742;-1.256;2023-03-04T11:48:55;102428.93;;;7.00;39.61
62055;BME280;48653;51.742;-1.256;2023-03-04T11:51:20;102422.08;;;6.89;39.60
62055;BME280;48653;51.742;-1.256;2023-03-04T11:53:46;102423.81;;;6.58;40.26
62055;BME280;48653;51.742;-1.256;2023-03-04T11:56:16;102417.11;;;5.31;41.75
62055;BME280;48653;51.742;-1.256;2023-03-04T11:58:48;102414.67;;;5.71;41.74
62055;BME280;48653;51.742;-1.256;2023-03-04T12:00:59;102409.85;;;6.60;40.26
62055;BME280;48653;51.742;-1.256;2023-03-04T12:05:53;102415.21;;;6.33;40.20
62055;BME280;48653;51.742;-1.256;2023-03-04T12:08:26;102420.98;;;5.78;40.09
62055;BME280;48653;51.742;-1.256;2023-03-04T12:10:40;102420.19;;;5.12;41.84
62055;BME280;48653;51.742;-1.256;2023-03-04T12:13:16;102414.46;;;5.25;42.06
62055;BME280;48653;51.742;-1.256;2023-03-04T12:15:31;102412.89;;;5.75;41.59
62055;BME280;48653;51.742;-1.256;2023-03-04T12:18:04;102410.74;;;6.15;40.49
62055;BME280;48653;51.742;-1.256;2023-03-04T12:20:26;102407.12;;;5.78;41.06
62055;BME280;48653;51.742;-1.256;2023-03-04T12:22:44;102404.85;;;5.04;41.72
62055;BME280;48653;51.742;-1.256;2023-03-04T12:25:24;102400.96;;;5.90;40.71
62055;BME280;48653;51.742;-1.256;2023-03-04T12:27:37;102395.66;;;5.76;40.90
62055;BME280;48653;51.742;-1.256;2023-03-04T12:30:01;102388.12;;;6.54;39.58
62055;BME280;48653;51.742;-1.256;2023-03-04T12:32:33;102385.05;;;6.66;39.27
62055;BME280;48653;51.742;-1.256;2023-03-04T12:35:02;102385.37;;;7.14;39.43
62055;BME280;48653;51.742;-1.256;2023-03-04T12:37:25;102380.90;;;7.35;38.88
62055;BME280;48653;51.742;-1.256;2023-03-04T12:39:47;102379.33;;;6.80;39.43
62055;BME280;48653;51.742;-1.256;2023-03-04T12:42:16;102378.63;;;6.76;38.95
62055;BME280;48653;51.742;-1.256;2023-03-04T12:44:38;102378.88;;;7.17;38.42